Time;durP1;ratioP1;P1;durP2;ratioP2;P2;SDS_P1;SDS_P2;PMS_P1;PMS_P2;Temp;Humidity;BMP_temperature;BMP_pressure;BME280_temperature;BME280_humidity;BME280_pressure;Samples;Min_cycle;Max_cycle;Signal;HPM_P1;HPM_P2
2021/01/19 00:00:36;;;;;;;46.88;12.70;;;;;;;-15.66;75.13;99712.64;1751202;82;20950;-83
2021/01/19 00:03:04;;;;;;;40.40;13.53;;;;;;;-15.64;74.96;99719.42;1751186;81;21062;-84
2021/01/19 00:05:31;;;;;;;41.77;14.35;;;;;;;-15.62;75.00;99713.53;1751178;82;21770;-82
2021/01/19 00:07:59;;;;;;;38.50;12.80;;;;;;;-15.58;75.15;99711.41;1751365;82;21362;-82
2021/01/19 00:10:26;;;;;;;43.23;13.48;;;;;;;-15.57;74.87;99703.85;1764276;80;20989;-81
2021/01/19 00:12:53;;;;;;;43.52;13.90;;;;;;;-15.57;74.96;99707.80;1767307;80;20974;-81
2021/01/19 00:15:21;;;;;;;47.53;14.07;;;;;;;-15.51;75.37;99706.70;1788192;80;22182;-81
2021/01/19 00:17:48;;;;;;;40.17;12.18;;;;;;;-15.49;75.06;99704.75;1788255;80;21018;-82
2021/01/19 00:20:16;;;;;;;44.15;14.25;;;;;;;-15.49;74.61;99710.02;1788234;80;21205;-84
2021/01/19 00:22:43;;;;;;;47.00;15.00;;;;;;;-15.49;74.82;99709.19;1788188;80;20989;-83
2021/01/19 00:25:11;;;;;;;47.45;15.38;;;;;;;-15.47;75.02;99708.06;1757102;81;20952;-83
2021/01/19 00:27:39;;;;;;;39.70;12.40;;;;;;;-15.46;74.93;99714.16;1735707;81;21025;-84
2021/01/19 00:30:09;;;;;;;43.92;12.90;;;;;;;-15.43;74.89;99710.75;1754206;81;20996;-84
2021/01/19 00:32:36;;;;;;;30.23;11.08;;;;;;;-15.41;74.87;99713.23;1754215;81;21363;-82
2021/01/19 00:35:06;;;;;;;44.95;13.72;;;;;;;-15.40;74.92;99708.31;1754074;81;21665;-83
2021/01/19 00:37:33;;;;;;;46.05;14.73;;;;;;;-15.39;74.69;99712.12;1754044;81;21016;-84
2021/01/19 00:40:05;;;;;;;34.45;11.18;;;;;;;-15.39;75.13;99712.12;1754124;81;21044;-83
2021/01/19 00:42:32;;;;;;;40.55;12.20;;;;;;;-15.38;75.24;99710.31;1754089;81;21182;-81
2021/01/19 00:44:59;;;;;;;38.95;13.15;;;;;;;-15.38;75.10;99709.83;1754200;81;21519;-79
2021/01/19 00:47:27;;;;;;;45.92;13.80;;;;;;;-15.33;75.32;99706.75;1753931;81;20956;-81
2021/01/19 00:49:54;;;;;;;33.90;12.35;;;;;;;-15.28;75.48;99712.41;1754127;81;21046;-80
2021/01/19 00:52:22;;;;;;;44.00;15.08;;;;;;;-15.25;75.30;99713.44;1754100;81;21035;-81
2021/01/19 00:54:50;;;;;;;51.25;14.60;;;;;;;-15.22;75.08;99707.88;1754072;81;21459;-81
2021/01/19 00:57:18;;;;;;;39.90;14.47;;;;;;;-15.17;74.88;99703.48;1759252;81;21436;-81
2021/01/19 00:59:47;;;;;;;38.90;10.95;;;;;;;-15.12;74.78;99703.87;1769050;81;20969;-85
2021/01/19 01:02:17;;;;;;;38.53;12.55;;;;;;;-15.09;74.48;99702.26;1769203;81;21025;-86
2021/01/19 01:04:44;;;;;;;45.60;14.85;;;;;;;-15.11;74.41;99699.77;1769125;81;20968;-84
2021/01/19 01:07:12;;;;;;;34.98;9.50;;;;;;;-15.10;75.20;99704.55;1740396;81;21065;-85
2021/01/19 01:09:39;;;;;;;27.73;9.63;;;;;;;-15.11;74.88;99698.45;1765963;81;21377;-85
2021/01/19 01:12:07;;;;;;;30.10;10.45;;;;;;;-15.16;74.52;99702.51;1762209;81;20954;-86
2021/01/19 01:14:35;;;;;;;39.60;13.32;;;;;;;-15.16;74.98;99698.55;1738920;82;21576;-84
2021/01/19 01:17:02;;;;;;;35.68;12.43;;;;;;;-15.14;74.82;99697.43;1738723;82;21079;-83
2021/01/19 01:19:31;;;;;;;34.43;11.25;;;;;;;-15.11;74.50;99699.77;1757016;81;21098;-85
2021/01/19 01:22:00;;;;;;;40.75;13.30;;;;;;;-15.09;74.85;99699.14;1757094;81;21786;-88
2021/01/19 01:24:28;;;;;;;37.83;13.62;;;;;;;-15.07;74.69;99701.13;1725433;83;20963;-82
2021/01/19 01:26:55;;;;;;;39.40;11.22;;;;;;;-15.05;74.57;99697.03;1757064;81;21001;-84
2021/01/19 01:29:23;;;;;;;36.50;12.35;;;;;;;-15.04;74.40;99698.69;1725353;83;21022;-85
2021/01/19 01:31:50;;;;;;;38.45;13.03;;;;;;;-15.04;74.32;99702.16;1757121;81;21033;-85
2021/01/19 01:34:18;;;;;;;42.83;15.08;;;;;;;-15.11;73.80;99694.99;1714903;83;21395;-85
2021/01/19 01:36:46;;;;;;;43.75;14.33;;;;;;;-15.21;73.77;99690.27;1734616;82;21578;-83
2021/01/19 01:39:13;;;;;;;37.28;14.10;;;;;;;-15.26;74.03;99696.47;1734575;82;21564;-83
2021/01/19 01:41:42;;;;;;;48.98;13.90;;;;;;;-15.31;73.81;99698.70;1734295;82;21093;-83
2021/01/19 01:44:09;;;;;;;47.03;13.83;;;;;;;-15.39;73.56;99698.95;1734611;82;21069;-82
2021/01/19 01:46:37;;;;;;;45.45;13.90;;;;;;;-15.50;73.43;99709.67;1734585;82;21393;-81
2021/01/19 01:49:05;;;;;;;36.68;13.78;;;;;;;-15.56;73.62;99701.56;1757924;81;21001;-81
2021/01/19 01:51:33;;;;;;;40.30;14.38;;;;;;;-15.57;73.62;99697.27;1758106;80;20989;-82
2021/01/19 01:54:01;;;;;;;18.82;6.30;;;;;;;-15.58;73.58;99704.34;1757267;80;21072;-83
2021/01/19 01:56:29;;;;;;;45.45;12.05;;;;;;;-15.63;74.53;99698.71;1760613;80;21496;-83
2021/01/19 01:58:56;;;;;;;47.90;14.23;;;;;;;-15.71;73.54;99702.55;1737087;82;21804;-82
2021/01/19 02:01:24;;;;;;;44.33;13.32;;;;;;;-15.85;73.16;99710.91;1736989;82;20986;-83
2021/01/19 02:03:54;;;;;;;34.45;10.88;;;;;;;-15.97;73.81;99701.05;1754384;80;21155;-82
2021/01/19 02:06:22;;;;;;;40.15;12.78;;;;;;;-16.04;73.83;99700.78;1753011;81;21012;-82
2021/01/19 02:09:11;;;;;;;37.03;11.18;;;;;;;-16.16;73.31;99697.14;1753065;80;20942;-83
2021/01/19 02:11:56;;;;;;;39.15;10.98;;;;;;;-16.26;73.19;99702.45;1753014;81;21406;-83
2021/01/19 02:14:40;;;;;;;35.25;13.30;;;;;;;-16.35;73.10;99696.72;1766122;80;21100;-84
2021/01/19 02:17:43;;;;;;;36.13;12.23;;;;;;;-16.41;73.25;99698.11;1784084;80;20934;-86
2021/01/19 02:21:04;;;;;;;38.25;11.90;;;;;;;-16.43;73.36;99693.48;1783822;80;21485;-83
2021/01/19 02:23:47;;;;;;;31.87;10.48;;;;;;;-16.40;74.49;99692.38;1784221;80;21136;-82
2021/01/19 02:26:44;;;;;;;43.38;12.98;;;;;;;-16.42;74.04;99691.69;1784225;80;21383;-85
2021/01/19 02:29:46;;;;;;;31.50;9.55;;;;;;;-16.44;74.00;99698.88;1784134;80;21192;-80
2021/01/19 02:32:25;;;;;;;36.48;12.43;;;;;;;-16.44;74.29;99698.39;1728912;80;21018;-80
2021/01/19 02:35:22;;;;;;;30.15;9.88;;;;;;;-16.42;74.10;99694.31;1768658;80;21108;-80
2021/01/19 02:38:18;;;;;;;40.23;12.55;;;;;;;-16.41;74.72;99694.17;1754750;81;21057;-81
2021/01/19 02:40:46;;;;;;;25.55;9.25;;;;;;;-16.39;74.82;99702.75;1734290;82;22207;-80
2021/01/19 02:43:25;;;;;;;44.50;12.28;;;;;;;-16.38;74.16;99694.38;1733946;82;21017;-81
2021/01/19 02:45:53;;;;;;;30.88;11.05;;;;;;;-16.40;74.24;99695.00;1708674;82;21473;-80
2021/01/19 02:48:22;;;;;;;27.85;9.53;;;;;;;-16.42;74.05;99701.70;1733892;82;21092;-80
2021/01/19 02:50:50;;;;;;;43.48;13.03;;;;;;;-16.46;73.86;99700.33;1733912;82;21485;-80
2021/01/19 02:53:17;;;;;;;30.08;9.65;;;;;;;-16.48;74.21;99698.81;1733787;82;21361;-81
2021/01/19 02:55:45;;;;;;;43.15;13.62;;;;;;;-16.47;74.37;99689.95;1733787;82;21583;-80
2021/01/19 02:58:39;;;;;;;36.88;13.13;;;;;;;-16.45;74.46;99691.96;1733785;82;21033;-81
2021/01/19 03:01:22;;;;;;;40.92;12.80;;;;;;;-16.40;74.36;99681.86;1733786;82;21055;-80
2021/01/19 03:03:50;;;;;;;30.95;7.80;;;;;;;-16.38;74.67;99682.55;1732684;82;21093;-80
2021/01/19 03:06:19;;;;;;;37.45;10.43;;;;;;;-16.40;74.57;99688.43;1707058;82;21383;-81
2021/01/19 03:08:47;;;;;;;41.58;12.70;;;;;;;-16.43;74.22;99675.57;1733849;82;21104;-81
2021/01/19 03:11:17;;;;;;;43.52;14.03;;;;;;;-16.50;74.81;99680.55;1706808;82;21010;-84
2021/01/19 03:13:50;;;;;;;36.28;13.20;;;;;;;-16.54;74.64;99679.17;1733769;82;21140;-83
2021/01/19 03:16:19;;;;;;;43.83;13.88;;;;;;;-16.55;74.52;99685.88;1733843;82;21063;-79
2021/01/19 03:18:49;;;;;;;46.90;14.05;;;;;;;-16.56;74.86;99684.23;1733820;82;21364;-85
2021/01/19 03:21:16;;;;;;;99.95;23.18;;;;;;;-16.61;74.86;99683.33;1733672;82;21018;-82
2021/01/19 03:23:44;;;;;;;35.52;11.88;;;;;;;-16.63;74.89;99680.50;1733777;82;21543;-79
2021/01/19 03:26:12;;;;;;;44.42;13.48;;;;;;;-16.63;74.93;99680.02;1733762;82;21199;-84
2021/01/19 03:28:39;;;;;;;40.78;12.23;;;;;;;-16.59;75.32;99677.94;1733818;82;21064;-80
2021/01/19 03:31:07;;;;;;;44.25;12.50;;;;;;;-16.56;75.26;99677.66;1733760;82;21170;-80
2021/01/19 03:33:35;;;;;;;43.68;13.20;;;;;;;-16.52;75.11;99677.72;1733715;82;21529;-80
2021/01/19 03:36:03;;;;;;;45.10;12.45;;;;;;;-16.50;75.33;99674.47;1760733;81;21073;-85
2021/01/19 03:38:30;;;;;;;34.33;10.78;;;;;;;-16.48;75.22;99679.10;1765168;81;21056;-80
2021/01/19 03:40:58;;;;;;;43.68;14.38;;;;;;;-16.49;75.10;99676.13;1765201;81;21077;-79
2021/01/19 03:43:25;;;;;;;41.98;13.93;;;;;;;-16.48;74.84;99674.67;1762619;81;22411;-83
2021/01/19 03:45:53;;;;;;;43.98;14.38;;;;;;;-16.44;74.84;99681.31;1739837;81;20949;-83
2021/01/19 03:48:21;;;;;;;39.48;13.32;;;;;;;-16.43;74.75;99680.83;1734391;82;21097;-84
2021/01/19 03:50:48;;;;;;;43.92;14.95;;;;;;;-16.43;74.63;99675.57;1734316;82;21072;-83
2021/01/19 03:53:15;;;;;;;27.82;10.10;;;;;;;-16.46;74.62;99667.97;1734326;82;20958;-84
2021/01/19 03:55:43;;;;;;;37.90;12.80;;;;;;;-16.50;74.42;99673.98;1734297;82;21384;-83
2021/01/19 03:58:10;;;;;;;34.23;11.80;;;;;;;-16.55;74.36;99673.58;1734197;82;20981;-83
2021/01/19 04:00:37;;;;;;;47.40;13.65;;;;;;;-16.55;74.90;99673.58;1734355;82;20906;-78
2021/01/19 04:03:05;;;;;;;41.65;13.25;;;;;;;-16.49;75.22;99672.19;1734263;82;21111;-78
2021/01/19 04:05:33;;;;;;;41.15;13.70;;;;;;;-16.44;75.08;99668.66;1734286;82;21595;-78
2021/01/19 04:08:01;;;;;;;50.65;14.55;;;;;;;-16.43;74.88;99665.06;1734276;82;21811;-79
2021/01/19 04:10:28;;;;;;;36.53;12.30;;;;;;;-16.40;75.31;99670.03;1734173;82;20958;-79
2021/01/19 04:12:55;;;;;;;43.83;11.75;;;;;;;-16.41;74.84;99659.17;1734269;82;21057;-78
2021/01/19 04:15:23;;;;;;;39.95;12.60;;;;;;;-16.45;74.32;99666.52;1734284;82;21176;-77
2021/01/19 04:17:51;;;;;;;53.63;15.32;;;;;;;-16.50;74.70;99662.16;1734377;82;21492;-78
2021/01/19 04:20:18;;;;;;;35.15;11.18;;;;;;;-16.55;74.60;99666.18;1734232;82;21158;-78
2021/01/19 04:22:45;;;;;;;44.42;14.60;;;;;;;-16.57;74.65;99669.43;1734197;82;21136;-78
2021/01/19 04:25:13;;;;;;;41.33;13.38;;;;;;;-16.60;74.76;99673.16;1734186;82;21029;-78
2021/01/19 04:27:40;;;;;;;48.20;13.95;;;;;;;-16.61;75.03;99670.67;1734241;82;20970;-78
2021/01/19 04:30:09;;;;;;;51.73;16.37;;;;;;;-16.59;74.98;99674.83;1734219;82;21529;-81
2021/01/19 04:32:37;;;;;;;41.45;13.70;;;;;;;-16.57;74.87;99672.89;1734274;82;22371;-78
2021/01/19 04:35:06;;;;;;;43.65;14.93;;;;;;;-16.56;75.09;99667.15;1742699;80;21004;-79
2021/01/19 04:37:34;;;;;;;52.67;13.13;;;;;;;-16.58;74.83;99676.48;1761375;81;21577;-80
2021/01/19 04:40:04;;;;;;;39.08;12.07;;;;;;;-16.58;75.00;99674.34;1761373;81;20928;-80
2021/01/19 04:42:37;;;;;;;47.58;12.80;;;;;;;-16.56;75.37;99683.74;1761480;81;21151;-83
2021/01/19 04:45:09;;;;;;;42.75;14.35;;;;;;;-16.55;75.29;99685.88;1761477;81;22102;-81
2021/01/19 04:47:37;;;;;;;53.17;14.87;;;;;;;-16.57;74.87;99679.94;1761298;81;21058;-81
2021/01/19 04:50:09;;;;;;;66.07;17.48;;;;;;;-16.58;75.14;99688.80;1761409;81;21557;-82
2021/01/19 04:52:45;;;;;;;51.45;15.83;;;;;;;-16.57;75.50;99682.08;1761541;81;21130;-82
2021/01/19 04:55:24;;;;;;;41.05;13.83;;;;;;;-16.54;75.40;99687.06;1761394;81;21181;-83
2021/01/19 04:58:01;;;;;;;45.70;15.20;;;;;;;-16.56;75.04;99685.05;1761405;81;22173;-86
2021/01/19 05:00:35;;;;;;;44.83;12.23;;;;;;;-16.56;75.83;99686.37;1761352;81;21522;-84
2021/01/19 05:03:21;;;;;;;40.80;12.60;;;;;;;-16.57;75.32;99684.71;1761391;81;21609;-84
2021/01/19 05:06:13;;;;;;;45.67;15.32;;;;;;;-16.60;75.08;99688.93;1761387;81;21074;-85
2021/01/19 05:08:55;;;;;;;53.30;15.65;;;;;;;-16.63;75.79;99687.06;1761676;81;21482;-85
2021/01/19 05:11:27;;;;;;;65.32;18.75;;;;;;;-16.67;75.35;99698.37;1761556;81;22203;-84
2021/01/19 05:14:02;;;;;;;44.55;14.05;;;;;;;-16.69;75.36;99700.78;1761528;81;25055;-83
2021/01/19 05:16:33;;;;;;;37.88;11.80;;;;;;;-16.72;75.19;99701.41;1761499;81;21510;-84
2021/01/19 05:19:02;;;;;;;41.50;15.07;;;;;;;-16.78;75.01;99703.30;1731841;81;21059;-82
2021/01/19 05:21:29;;;;;;;42.35;10.32;;;;;;;-16.80;75.23;99707.86;1761392;81;21482;-81
2021/01/19 05:23:57;;;;;;;30.97;9.80;;;;;;;-16.79;75.49;99700.81;1761339;81;21379;-83
2021/01/19 05:26:26;;;;;;;54.67;16.25;;;;;;;-16.79;75.65;99696.39;1761276;81;21023;-80
2021/01/19 05:28:54;;;;;;;32.95;10.60;;;;;;;-16.79;75.73;99711.32;1761420;81;21560;-80
2021/01/19 05:31:27;;;;;;;32.88;11.65;;;;;;;-16.81;76.67;99707.52;1753955;81;21086;-73
2021/01/19 05:34:05;;;;;;;43.65;13.25;;;;;;;-16.83;75.96;99710.77;1761222;81;21162;-77
2021/01/19 05:36:40;;;;;;;29.77;8.63;;;;;;;-16.81;76.03;99712.77;1761254;81;21198;-76
2021/01/19 05:39:12;;;;;;;43.25;10.13;;;;;;;-16.80;75.69;99710.97;1761339;81;21089;-69
2021/01/19 05:41:48;;;;;;;;;;;;;;;-16.82;75.89;99711.11;1763930;81;22440;-76
2021/01/19 05:44:29;;;;;;;52.00;12.63;;;;;;;-16.83;75.67;99713.88;1761246;81;20149;-77
2021/01/19 05:47:05;;;;;;;55.15;17.67;;;;;;;-16.87;75.48;99719.05;1761485;81;21046;-76
2021/01/19 05:49:41;;;;;;;53.92;16.55;;;;;;;-16.86;75.64;99718.09;1760384;81;21944;-76
2021/01/19 05:52:15;;;;;;;47.05;13.60;;;;;;;-16.84;75.62;99714.84;1738089;81;21090;-78
2021/01/19 05:54:45;;;;;;;44.48;15.08;;;;;;;-16.85;75.22;99716.64;1730811;83;21050;-84
2021/01/19 05:57:16;;;;;;;62.40;17.00;;;;;;;-16.88;75.66;99718.23;1731058;83;21090;-82
2021/01/19 05:59:46;;;;;;;48.58;15.25;;;;;;;-16.94;75.24;99720.56;1730356;83;21632;-80
2021/01/19 06:02:18;;;;;;;44.85;13.32;;;;;;;-17.01;75.05;99722.91;1730220;83;21730;-82
2021/01/19 06:04:53;;;;;;;46.00;16.35;;;;;;;-17.03;75.71;99729.26;1731140;83;21023;-82
2021/01/19 06:07:24;;;;;;;53.13;17.12;;;;;;;-17.10;75.10;99727.66;1731356;83;21499;-82
2021/01/19 06:09:52;;;;;;;48.25;13.88;;;;;;;-17.19;74.77;99727.16;1731258;83;20949;-77
2021/01/19 06:12:20;;;;;;;50.30;13.95;;;;;;;-17.24;74.96;99730.66;1731343;83;21506;-77
2021/01/19 06:14:52;;;;;;;37.45;10.82;;;;;;;-17.27;74.98;99744.05;1731176;83;21276;-76
2021/01/19 06:17:21;;;;;;;40.28;11.80;;;;;;;-17.35;74.67;99743.92;1731177;83;20955;-80
2021/01/19 06:19:52;;;;;;;60.12;18.40;;;;;;;-17.46;74.61;99748.78;1731146;83;20945;-74
2021/01/19 06:22:23;;;;;;;58.15;18.85;;;;;;;-17.52;74.82;99757.18;1731370;83;27544;-74
2021/01/19 06:24:57;;;;;;;48.55;13.45;;;;;;;-17.53;74.99;99756.83;1731264;83;20956;-75
2021/01/19 06:27:29;;;;;;;64.17;19.32;;;;;;;-17.52;75.01;99765.88;1731233;83;21356;-75
2021/01/19 06:30:13;;;;;;;76.53;24.43;;;;;;;-17.49;75.47;99765.62;1731254;83;21090;-74
2021/01/19 06:32:47;;;;;;;89.35;24.70;;;;;;;-17.47;75.04;99758.45;1731310;83;21498;-71
2021/01/19 06:35:20;;;;;;;77.97;22.75;;;;;;;-17.45;75.01;99759.63;1729677;82;21083;-74
2021/01/19 06:37:53;;;;;;;61.77;16.70;;;;;;;-17.44;75.21;99759.49;1719825;83;21466;-74
2021/01/19 06:40:24;;;;;;;74.42;22.10;;;;;;;-17.40;75.19;99760.89;1719833;83;21371;-81
2021/01/19 06:42:59;;;;;;;65.42;19.85;;;;;;;-17.34;75.14;99758.22;1719870;83;24194;-73
2021/01/19 06:45:27;;;;;;;67.35;19.30;;;;;;;-17.31;75.01;99757.09;1719485;83;21020;-74
2021/01/19 06:47:55;;;;;;;61.90;18.67;;;;;;;-17.21;75.45;99759.27;1724028;82;21040;-74
2021/01/19 06:50:29;;;;;;;53.85;15.05;;;;;;;-17.07;75.35;99765.45;1703858;84;21211;-76
2021/01/19 06:53:39;;;;;;;58.85;18.75;;;;;;;-17.01;74.43;99758.34;1703279;84;21398;-71
2021/01/19 06:56:13;;;;;;;54.45;16.30;;;;;;;-17.04;74.10;99763.88;1703519;84;21179;-70
2021/01/19 06:58:55;;;;;;;49.33;15.30;;;;;;;-16.96;74.38;99766.66;1704161;84;21166;-68
2021/01/19 07:01:27;;;;;;;45.08;15.18;;;;;;;-16.71;74.22;99768.73;1704315;84;21211;-70
2021/01/19 07:04:23;;;;;;;45.95;15.75;;;;;;;-16.39;74.97;99766.30;1704439;84;21151;-69
2021/01/19 07:07:39;;;;;;;45.65;14.03;;;;;;;-15.91;74.76;99779.86;1704479;84;21354;-69
2021/01/19 07:10:47;;;;;;;59.77;20.85;;;;;;;-15.44;72.43;99774.91;1712028;82;21198;-70
2021/01/19 07:13:24;;;;;;;48.85;16.27;;;;;;;-15.05;71.65;99769.47;1714960;82;21245;-67
2021/01/19 07:16:14;;;;;;;52.10;16.48;;;;;;;-14.75;69.21;99771.76;1717239;82;21181;-70
2021/01/19 07:19:16;;;;;;;51.28;15.83;;;;;;;-14.38;68.70;99766.79;1737558;82;21146;-70
2021/01/19 07:22:07;;;;;;;62.30;19.25;;;;;;;-14.14;66.76;99752.50;1710992;83;21212;-68
2021/01/19 07:24:45;;;;;;;52.55;17.90;;;;;;;-13.90;66.27;99757.63;1712958;83;21685;-70
2021/01/19 07:27:15;;;;;;;57.17;17.73;;;;;;;-13.91;63.65;99750.20;1712963;83;21136;-67
2021/01/19 07:29:43;;;;;;;52.93;17.27;;;;;;;-13.96;63.61;99752.96;1712914;83;21137;-65
2021/01/19 07:32:29;;;;;;;46.18;16.52;;;;;;;-13.96;63.84;99754.28;1713170;83;21194;-64
2021/01/19 07:34:59;;;;;;;60.15;17.98;;;;;;;-13.80;63.46;99759.16;1689195;83;21158;-73
2021/01/19 07:37:34;;;;;;;49.35;16.42;;;;;;;-13.82;62.84;99757.16;1713367;83;21500;-74
2021/01/19 07:40:02;;;;;;;58.70;18.42;;;;;;;-13.79;62.02;99760.81;1712958;83;21167;-73
2021/01/19 07:42:33;;;;;;;62.05;21.33;;;;;;;-13.58;62.53;99757.81;1713046;83;21087;-73
2021/01/19 07:45:03;;;;;;;53.90;17.30;;;;;;;-13.33;61.74;99761.91;1709665;83;21160;-73
2021/01/19 07:47:43;;;;;;;58.73;20.27;;;;;;;-13.21;60.79;99760.62;1712876;82;21384;-72
2021/01/19 07:50:19;;;;;;;53.50;19.20;;;;;;;-13.15;59.76;99759.45;1703707;83;21091;-73
2021/01/19 07:52:47;;;;;;;52.65;17.20;;;;;;;-13.09;60.24;99756.19;1684754;85;21606;-72
2021/01/19 07:55:21;;;;;;;47.75;16.85;;;;;;;-13.06;59.79;99765.11;1700366;83;21159;-72
2021/01/19 07:57:51;;;;;;;64.87;19.30;;;;;;;-13.01;60.19;99768.60;1713231;83;21226;-77
2021/01/19 08:00:24;;;;;;;52.25;16.85;;;;;;;-12.79;59.62;99760.58;1708810;83;21575;-71
2021/01/19 08:03:03;;;;;;;49.98;17.82;;;;;;;-12.59;59.36;99771.19;1705556;82;21159;-71
2021/01/19 08:05:31;;;;;;;46.25;16.50;;;;;;;-12.50;58.37;99768.06;1708846;83;21121;-71
2021/01/19 08:08:16;;;;;;;47.23;16.93;;;;;;;-12.44;56.83;99772.20;1712813;83;21049;-73
2021/01/19 08:10:57;;;;;;;50.70;18.75;;;;;;;-12.48;58.14;99762.95;1691642;83;21113;-73
2021/01/19 08:13:25;;;;;;;48.98;17.50;;;;;;;-12.35;57.43;99771.73;1710893;83;22258;-75
2021/01/19 08:16:07;;;;;;;46.53;16.73;;;;;;;-12.19;56.17;99774.39;1712723;83;21149;-75
2021/01/19 08:18:41;;;;;;;51.08;19.05;;;;;;;-11.94;57.09;99778.34;1730254;82;21156;-74
2021/01/19 08:21:09;;;;;;;54.53;18.73;;;;;;;-11.57;56.65;99781.27;1737832;81;21199;-77
2021/01/19 08:23:37;;;;;;;56.65;19.12;;;;;;;-11.41;54.27;99779.06;1721211;82;21223;-77
2021/01/19 08:26:09;;;;;;;43.08;16.02;;;;;;;-11.40;54.09;99772.27;1738697;82;21379;-75
2021/01/19 08:28:38;;;;;;;53.90;19.10;;;;;;;-11.46;53.45;99786.19;1735127;82;21230;-73
2021/01/19 08:31:15;;;;;;;60.00;20.88;;;;;;;-11.50;53.58;99778.74;1739343;82;21522;-71
2021/01/19 08:33:50;;;;;;;47.27;17.73;;;;;;;-11.36;53.82;99774.91;1723865;82;21139;-75
2021/01/19 08:36:14;;;;;;;60.70;19.92;;;;;;;-11.31;53.16;99778.38;1715000;82;21565;-76
2021/01/19 08:38:45;;;;;;;50.73;17.65;;;;;;;-11.18;52.97;99769.89;1699413;83;22227;-69
2021/01/19 08:41:19;;;;;;;60.58;18.75;;;;;;;-10.93;53.17;99766.63;1701644;83;21029;-77
2021/01/19 08:43:57;;;;;;;46.25;18.15;;;;;;;-10.72;52.96;99770.84;1723958;83;20957;-78
2021/01/19 08:46:26;;;;;;;49.50;17.65;;;;;;;-10.77;51.78;99776.66;1737308;82;21602;-77
2021/01/19 08:49:12;;;;;;;58.17;19.10;;;;;;;-10.82;51.47;99775.53;1740141;81;21579;-69
2021/01/19 08:51:48;;;;;;;52.15;18.67;;;;;;;-10.80;53.21;99770.88;1741282;82;22122;-72
2021/01/19 08:54:16;;;;;;;44.75;15.45;;;;;;;-10.75;51.78;99776.48;1740443;81;21030;-68
2021/01/19 08:56:45;;;;;;;50.38;19.32;;;;;;;-10.67;51.27;99769.32;1738978;81;21553;-70
2021/01/19 08:59:14;;;;;;;46.80;18.10;;;;;;;-10.50;50.61;99773.21;1742393;81;21554;-72
2021/01/19 09:01:53;;;;;;;46.23;15.65;;;;;;;-10.37;50.96;99772.94;1740273;81;21135;-69
2021/01/19 09:04:27;;;;;;;43.75;14.00;;;;;;;-10.32;49.92;99771.08;1739806;82;22248;-70
2021/01/19 09:07:07;;;;;;;56.70;18.92;;;;;;;-10.47;50.63;99764.41;1712026;83;21109;-72
2021/01/19 09:09:36;;;;;;;47.75;18.92;;;;;;;-10.57;50.04;99764.30;1732654;82;20940;-70
2021/01/19 09:12:18;;;;;;;55.88;19.02;;;;;;;-10.61;49.77;99764.32;1734080;82;21014;-69
2021/01/19 09:14:52;;;;;;;46.45;19.25;;;;;;;-10.70;49.91;99763.03;1715223;82;20955;-70
2021/01/19 09:17:25;;;;;;;44.40;17.05;;;;;;;-10.56;51.51;99764.63;1733054;82;21445;-70
2021/01/19 09:20:07;;;;;;;42.10;14.40;;;;;;;-10.30;49.79;99756.31;1711158;82;21171;-71
2021/01/19 09:22:36;;;;;;;42.53;16.15;;;;;;;-10.16;49.98;99756.34;1726193;83;21059;-75
2021/01/19 09:25:04;;;;;;;31.97;11.73;;;;;;;-10.14;50.48;99754.33;1686555;83;21464;-78
2021/01/19 09:27:32;;;;;;;45.05;16.85;;;;;;;-10.13;49.19;99755.16;1726054;83;21147;-69
2021/01/19 09:30:09;;;;;;;42.60;15.03;;;;;;;-10.13;48.84;99755.98;1711092;83;21163;-68
2021/01/19 09:32:49;;;;;;;45.00;15.10;;;;;;;-9.98;50.61;99750.73;1642851;86;21102;-71
2021/01/19 09:35:18;;;;;;;48.83;16.17;;;;;;;-9.46;49.23;99741.42;1655402;85;21183;-71
2021/01/19 09:37:46;;;;;;;43.95;16.80;;;;;;;-9.12;48.73;99741.36;1675671;85;21148;-72
2021/01/19 09:40:14;;;;;;;40.98;15.48;;;;;;;-8.84;48.90;99737.02;1680381;85;21198;-71
2021/01/19 09:42:42;;;;;;;36.53;13.08;;;;;;;-8.53;49.09;99743.39;1683600;85;21380;-67
2021/01/19 09:45:11;;;;;;;40.45;15.50;;;;;;;-8.04;47.28;99744.77;1683537;85;21107;-70
2021/01/19 09:47:40;;;;;;;50.60;17.02;;;;;;;-7.89;45.82;99741.21;1683686;85;21116;-70
2021/01/19 09:50:10;;;;;;;33.95;13.60;;;;;;;-7.96;44.79;99735.00;1683550;85;21083;-73
2021/01/19 09:52:45;;;;;;;35.30;14.58;;;;;;;-8.11;45.94;99741.25;1683660;85;21096;-70
2021/01/19 09:55:14;;;;;;;38.08;14.95;;;;;;;-8.07;47.00;99736.33;1683588;85;21182;-69
2021/01/19 09:57:42;;;;;;;44.05;16.93;;;;;;;-7.91;45.56;99736.58;1683603;85;20969;-70
2021/01/19 10:00:12;;;;;;;41.63;15.05;;;;;;;-7.91;44.46;99729.92;1683616;85;21104;-71
2021/01/19 10:02:40;;;;;;;38.08;14.30;;;;;;;-7.91;44.67;99731.25;1683390;85;21075;-72
2021/01/19 10:05:08;;;;;;;41.75;15.18;;;;;;;-7.79;45.48;99727.88;1683715;85;20957;-71
2021/01/19 10:07:36;;;;;;;40.23;14.07;;;;;;;-7.78;43.93;99723.37;1683661;85;21394;-69
2021/01/19 10:10:12;;;;;;;40.78;15.38;;;;;;;-7.83;45.20;99720.45;1682417;85;21037;-73
2021/01/19 10:12:40;;;;;;;38.15;14.70;;;;;;;-7.61;44.90;99715.91;1675099;85;21112;-71
2021/01/19 10:15:10;;;;;;;43.58;14.85;;;;;;;-7.57;45.42;99718.00;1677636;85;20946;-70
2021/01/19 10:17:39;;;;;;;37.20;13.58;;;;;;;-7.52;43.82;99718.75;1677329;84;21559;-73
2021/01/19 10:20:14;;;;;;;44.60;15.80;;;;;;;-7.69;43.48;99716.88;1687577;83;21353;-73
2021/01/19 10:22:48;;;;;;;38.73;15.05;;;;;;;-7.96;45.24;99712.34;1653099;84;21147;-71
2021/01/19 10:25:31;;;;;;;40.35;14.28;;;;;;;-7.97;44.51;99712.03;1695852;84;21022;-73
2021/01/19 10:28:04;;;;;;;38.98;15.53;;;;;;;-7.81;44.43;99711.25;1700727;83;21204;-70
2021/01/19 10:30:34;;;;;;;36.17;14.85;;;;;;;-7.46;45.05;99700.09;1673119;84;21085;-70
2021/01/19 10:33:02;;;;;;;44.95;15.45;;;;;;;-7.21;42.90;99703.11;1710455;82;21467;-70
2021/01/19 10:35:35;;;;;;;43.17;14.78;;;;;;;-7.19;42.72;99701.59;1707945;83;21097;-70
2021/01/19 10:38:06;;;;;;;45.05;16.57;;;;;;;-7.04;42.66;99700.95;1716309;83;21066;-70
2021/01/19 10:40:35;;;;;;;38.02;14.87;;;;;;;-6.95;42.56;99695.75;1714185;83;21604;-71
2021/01/19 10:43:10;;;;;;;47.13;16.40;;;;;;;-6.77;42.08;99700.01;1711545;83;21230;-76
2021/01/19 10:45:40;;;;;;;41.35;16.85;;;;;;;-6.78;41.64;99695.69;1685929;85;21209;-72
2021/01/19 10:48:19;;;;;;;44.67;17.25;;;;;;;-7.03;42.64;99695.41;1684948;85;21118;-78
2021/01/19 10:50:47;;;;;;;43.65;16.45;;;;;;;-7.18;41.86;99685.89;1686010;85;21671;-70
2021/01/19 10:53:15;;;;;;;42.03;14.80;;;;;;;-7.19;41.93;99689.58;1669472;86;21149;-74
2021/01/19 10:55:43;;;;;;;43.35;15.50;;;;;;;-7.13;42.39;99680.28;1655652;84;21615;-77
2021/01/19 10:58:10;;;;;;;44.65;15.93;;;;;;;-6.97;41.97;99684.45;1700145;84;21388;-76
2021/01/19 11:00:38;;;;;;;38.30;15.03;;;;;;;-6.93;41.77;99680.87;1700013;84;21622;-69
2021/01/19 11:03:07;;;;;;;40.25;14.95;;;;;;;-6.83;42.67;99673.29;1668899;85;21611;-68
2021/01/19 11:05:35;;;;;;;47.45;17.05;;;;;;;-6.91;42.38;99674.80;1676904;83;21164;-70
2021/01/19 11:08:04;;;;;;;36.95;13.75;;;;;;;-7.08;41.87;99670.34;1721235;83;21147;-77
2021/01/19 11:10:33;;;;;;;38.50;15.35;;;;;;;-6.97;42.25;99668.44;1721431;83;22273;-70
2021/01/19 11:13:03;;;;;;;38.85;13.13;;;;;;;-6.68;41.40;99657.42;1721316;83;21752;-81
2021/01/19 11:15:31;;;;;;;45.30;15.25;;;;;;;-6.48;42.01;99657.98;1668498;85;21159;-79
2021/01/19 11:17:59;;;;;;;41.92;17.95;;;;;;;-6.17;40.80;99659.54;1693547;83;21210;-76
2021/01/19 11:20:27;;;;;;;39.90;15.08;;;;;;;-6.06;40.52;99660.27;1693215;82;21579;-79
2021/01/19 11:22:55;;;;;;;42.55;15.13;;;;;;;-5.95;41.85;99652.14;1714153;83;21360;-70
2021/01/19 11:25:23;;;;;;;39.15;16.23;;;;;;;-5.72;40.88;99657.00;1715318;83;21218;-89
2021/01/19 11:27:50;;;;;;;39.23;17.20;;;;;;;-5.50;39.05;99656.25;1715886;83;21047;-70
2021/01/19 11:30:20;;;;;;;46.02;17.77;;;;;;;-5.54;38.68;99651.02;1715429;83;21510;-71
2021/01/19 11:32:48;;;;;;;41.13;15.00;;;;;;;-5.75;38.86;99646.20;1715381;83;21087;-68
2021/01/19 11:35:16;;;;;;;34.15;13.45;;;;;;;-5.83;40.13;99654.98;1662281;85;21635;-68